createdAt,value
2019-01-20T00:06:15.992Z,6.40
2019-01-20T00:16:21.139Z,5.70
2019-01-20T00:26:26.323Z,5.87
2019-01-20T00:36:32.545Z,6.00
2019-01-20T00:46:37.684Z,6.10
2019-01-20T00:56:42.824Z,5.90
2019-01-20T01:06:47.963Z,6.03
2019-01-20T01:16:53.130Z,4.80
2019-01-20T01:26:58.306Z,5.53
2019-01-20T01:37:03.442Z,5.20
2019-01-20T01:47:08.582Z,5.33
2019-01-20T01:57:13.736Z,5.73
2019-01-20T04:05:06.367Z,4.50
2019-01-20T04:15:12.747Z,5.27
2019-01-20T04:25:18.882Z,4.63
2019-01-20T04:35:24.011Z,4.93
2019-01-20T04:45:29.148Z,4.83
2019-01-20T04:55:34.580Z,4.90
2019-01-20T05:05:39.759Z,5.13
2019-01-20T05:15:44.884Z,4.50
2019-01-20T05:25:50.066Z,4.60
2019-01-20T05:35:55.198Z,4.43
2019-01-20T05:46:00.340Z,5.27
2019-01-20T05:56:05.492Z,4.33
2019-01-20T06:06:10.642Z,4.13
2019-01-20T06:16:15.776Z,4.83
2019-01-20T06:26:20.945Z,4.40
2019-01-20T06:36:26.109Z,4.27
2019-01-20T06:46:31.257Z,4.50
2019-01-20T06:56:36.405Z,4.33
2019-01-20T07:06:42.623Z,4.53
2019-01-20T07:16:47.760Z,4.87
2019-01-20T07:26:52.929Z,5.07
2019-01-20T07:36:58.097Z,4.27
2019-01-20T07:47:03.222Z,5.13
2019-01-20T07:57:08.354Z,4.50
2019-01-20T08:07:13.491Z,4.07
2019-01-20T08:17:18.638Z,4.40
2019-01-20T08:27:25.251Z,3.83
2019-01-20T08:37:30.796Z,4.83
2019-01-20T08:47:52.558Z,4.40
2019-01-20T08:57:57.705Z,3.73
2019-01-20T09:08:02.842Z,4.23
2019-01-20T09:18:08.272Z,3.90
2019-01-20T09:28:13.438Z,3.70
2019-01-20T09:38:18.668Z,4.23
2019-01-20T09:48:24.271Z,4.07
2019-01-20T09:58:29.409Z,4.17
2019-01-20T10:08:34.863Z,4.10
2019-01-20T10:18:40.022Z,4.67
2019-01-20T10:28:45.721Z,4.30
2019-01-20T10:38:50.877Z,4.40
2019-01-20T10:48:56.010Z,4.07
2019-01-20T10:59:01.188Z,4.60
2019-01-20T11:09:07.011Z,4.60
2019-01-20T11:19:12.292Z,15.93
2019-01-20T11:29:17.471Z,13.93
2019-01-20T11:39:22.618Z,9.87
2019-01-20T11:49:27.931Z,10.40
2019-01-20T11:59:33.092Z,9.63
2019-01-20T12:09:43.490Z,9.87
2019-01-20T12:19:48.636Z,9.93
2019-01-20T12:29:53.807Z,9.70
2019-01-20T12:39:59.495Z,9.23
2019-01-20T12:50:05.240Z,9.70
2019-01-20T13:00:12.579Z,9.83
2019-01-20T13:10:18.360Z,8.60
2019-01-20T13:20:24.783Z,10.10
2019-01-20T13:30:30.382Z,9.23
2019-01-20T13:41:05.158Z,8.43
2019-01-20T13:51:10.380Z,8.30
2019-01-20T14:01:15.513Z,9.20
2019-01-20T14:11:21.225Z,8.67
2019-01-20T14:21:26.357Z,9.50
2019-01-20T14:31:31.687Z,7.77
2019-01-20T14:41:36.834Z,7.70
2019-01-20T14:51:42.273Z,8.33
2019-01-20T15:01:47.411Z,8.03
2019-01-20T15:11:52.958Z,9.30
2019-01-20T15:21:58.089Z,8.50
2019-01-20T15:32:03.746Z,8.40
2019-01-20T15:42:09.335Z,8.37
2019-01-20T15:52:14.525Z,8.13
2019-01-20T16:02:19.698Z,7.60
2019-01-20T16:12:25.127Z,8.07
2019-01-20T16:22:30.261Z,7.57
2019-01-20T16:32:35.953Z,9.30
2019-01-20T16:42:42.669Z,8.90
2019-01-20T16:52:48.089Z,9.20
2019-01-20T17:02:54.322Z,9.13
2019-01-20T17:12:59.567Z,8.13
2019-01-20T17:23:04.784Z,9.57
2019-01-20T17:33:10.909Z,10.00
2019-01-20T17:43:16.058Z,8.77
2019-01-20T17:53:21.573Z,10.70
2019-01-20T18:03:26.800Z,8.90
2019-01-20T18:13:31.942Z,8.43
2019-01-20T18:23:37.111Z,9.27
2019-01-20T18:33:42.273Z,8.80
2019-01-20T18:43:47.413Z,9.63
2019-01-20T18:53:52.566Z,9.80
2019-01-20T19:03:57.712Z,9.90
2019-01-20T19:14:02.918Z,9.40
2019-01-20T19:24:08.082Z,9.70
2019-01-20T19:34:13.229Z,8.63
2019-01-20T19:44:19.201Z,7.57
2019-01-20T19:54:24.344Z,8.53
2019-01-20T20:04:29.485Z,8.57
2019-01-20T20:14:35.145Z,8.60
2019-01-20T20:24:40.332Z,9.07
2019-01-20T20:34:45.484Z,7.97
2019-01-20T20:44:50.640Z,8.20
2019-01-20T20:54:55.812Z,7.70
2019-01-20T21:05:01.104Z,7.90
2019-01-20T21:15:07.977Z,7.70
2019-01-20T21:25:13.395Z,9.10
2019-01-20T21:35:19.423Z,8.53
2019-01-20T21:45:25.130Z,7.60
2019-01-20T21:55:30.283Z,7.53
2019-01-20T22:05:36.030Z,7.73
2019-01-20T22:15:41.175Z,8.40
2019-01-20T22:25:46.558Z,7.57
2019-01-20T22:35:51.705Z,7.80
2019-01-20T22:45:56.840Z,7.57
2019-01-20T22:56:01.965Z,7.90
2019-01-20T23:06:07.211Z,8.00
2019-01-20T23:16:12.402Z,8.03
2019-01-20T23:26:17.638Z,8.10
2019-01-20T23:36:22.869Z,8.50
2019-01-20T23:46:28.037Z,8.00
2019-01-20T23:56:33.167Z,8.67
